Time;durP1;ratioP1;P1;durP2;ratioP2;P2;SDS_P1;SDS_P2;PMS_P1;PMS_P2;Temp;Humidity;BMP_temperature;BMP_pressure;BME280_temperature;BME280_humidity;BME280_pressure;Samples;Min_cycle;Max_cycle;Signal;HPM_P1;HPM_P2
2021/09/12 00:04:29;;;;;;;5.38;4.55;;;22.30;74.80;;;;;;10420059;28;20101;-53
2021/09/12 00:09:29;;;;;;;5.05;4.35;;;22.30;74.80;;;;;;10419777;28;20088;-54
2021/09/12 00:14:30;;;;;;;6.25;4.68;;;22.30;74.90;;;;;;10419630;28;20490;-53
2021/09/12 00:19:31;;;;;;;6.95;4.57;;;22.30;74.90;;;;;;10426534;28;20041;-54
2021/09/12 00:24:32;;;;;;;5.80;4.10;;;22.30;74.90;;;;;;10418152;28;20026;-55
2021/09/12 00:29:33;;;;;;;6.30;4.32;;;22.30;74.70;;;;;;10419289;28;20366;-54
2021/09/12 00:34:34;;;;;;;5.10;4.40;;;22.30;74.80;;;;;;10418112;28;20021;-53
2021/09/12 00:39:35;;;;;;;8.88;4.10;;;22.30;74.70;;;;;;10418598;28;20033;-55
2021/09/12 00:44:36;;;;;;;6.22;3.88;;;22.30;74.70;;;;;;10418542;28;20084;-55
2021/09/12 00:49:38;;;;;;;8.45;4.38;;;22.30;74.70;;;;;;10418492;28;20532;-54
2021/09/12 00:54:40;;;;;;;4.78;4.30;;;22.20;74.60;;;;;;10418301;28;20068;-55
2021/09/12 00:59:43;;;;;;;6.43;4.72;;;22.30;74.60;;;;;;10417937;28;20037;-55
2021/09/12 01:04:44;;;;;;;5.32;3.97;;;22.30;74.70;;;;;;10417573;28;20486;-55
2021/09/12 01:09:45;;;;;;;6.70;4.20;;;22.30;74.80;;;;;;10407393;28;20371;-54
2021/09/12 01:14:45;;;;;;;5.90;4.22;;;22.20;74.60;;;;;;10416970;28;20112;-54
2021/09/12 01:19:46;;;;;;;7.18;4.50;;;22.20;74.70;;;;;;10424502;28;20029;-55
2021/09/12 01:24:47;;;;;;;5.57;4.30;;;22.20;74.70;;;;;;10416853;28;20152;-55
2021/09/12 01:29:48;;;;;;;6.82;4.13;;;22.20;74.60;;;;;;10416757;28;20477;-53
2021/09/12 01:34:49;;;;;;;6.38;4.78;;;22.20;74.50;;;;;;10416705;28;20026;-54
2021/09/12 01:39:49;;;;;;;6.45;4.35;;;22.20;74.50;;;;;;10415601;28;20044;-55
2021/09/12 01:44:52;;;;;;;5.30;4.20;;;22.20;74.50;;;;;;10415700;28;20448;-54
2021/09/12 01:49:53;;;;;;;5.35;3.97;;;22.20;74.50;;;;;;10415843;28;20450;-55
2021/09/12 01:54:53;;;;;;;5.00;4.38;;;22.20;74.40;;;;;;10414866;28;20034;-54
2021/09/12 01:59:54;;;;;;;5.97;3.67;;;22.20;74.30;;;;;;10415694;28;20064;-55
2021/09/12 02:04:55;;;;;;;6.07;3.97;;;22.20;74.20;;;;;;10415329;28;20056;-54
2021/09/12 02:09:55;;;;;;;5.63;3.90;;;22.20;74.20;;;;;;10414945;28;20604;-53
2021/09/12 02:14:57;;;;;;;6.10;3.55;;;22.20;74.30;;;;;;10415358;28;20053;-53
2021/09/12 02:19:57;;;;;;;4.78;3.63;;;22.10;74.20;;;;;;10421793;28;20374;-54
2021/09/12 02:24:58;;;;;;;5.75;4.38;;;22.20;74.30;;;;;;10414527;28;20069;-53
2021/09/12 02:29:59;;;;;;;6.50;3.85;;;22.20;74.20;;;;;;10413556;28;20120;-55
2021/09/12 02:34:59;;;;;;;3.97;3.58;;;22.20;74.10;;;;;;10414398;28;20052;-54
2021/09/12 02:40:00;;;;;;;5.82;4.18;;;22.10;74.00;;;;;;10413146;28;20485;-54
2021/09/12 02:45:01;;;;;;;5.22;4.13;;;22.20;74.10;;;;;;10414275;28;20044;-55
2021/09/12 02:50:03;;;;;;;5.53;3.83;;;22.10;74.00;;;;;;10414233;28;20021;-55
2021/09/12 02:55:06;;;;;;;4.55;3.47;;;22.20;74.00;;;;;;10413946;28;20036;-55
2021/09/12 03:00:08;;;;;;;5.32;3.38;;;22.20;74.00;;;;;;10414044;28;20414;-55
2021/09/12 03:05:09;;;;;;;5.10;3.50;;;22.10;74.00;;;;;;10413667;28;20103;-54
2021/09/12 03:10:10;;;;;;;4.93;3.42;;;22.10;73.90;;;;;;10414010;28;20078;-54
2021/09/12 03:15:12;;;;;;;6.05;3.80;;;22.10;73.80;;;;;;10413964;28;20156;-55
2021/09/12 03:20:13;;;;;;;5.35;3.30;;;22.20;73.80;;;;;;10420593;28;20488;-54
2021/09/12 03:25:13;;;;;;;5.53;4.20;;;22.10;73.70;;;;;;10413492;28;20053;-55
2021/09/12 03:30:14;;;;;;;7.63;4.47;;;22.10;73.60;;;;;;10411811;28;20144;-54
2021/09/12 03:35:15;;;;;;;5.43;4.22;;;22.10;73.50;;;;;;10415378;28;20401;-55
2021/09/12 03:40:16;;;;;;;4.55;3.28;;;22.10;73.60;;;;;;10419797;28;20458;-55
2021/09/12 03:45:17;;;;;;;5.18;3.90;;;22.10;73.60;;;;;;10420736;28;20128;-53
2021/09/12 03:50:17;;;;;;;5.07;3.95;;;22.00;73.40;;;;;;10420844;28;20033;-54
2021/09/12 03:55:18;;;;;;;7.18;3.97;;;22.10;73.30;;;;;;10420215;28;20037;-55
2021/09/12 04:00:19;;;;;;;4.55;3.33;;;22.00;73.10;;;;;;10418915;28;20026;-54
2021/09/12 04:05:19;;;;;;;5.35;3.80;;;22.00;73.10;;;;;;10420024;28;20025;-55
2021/09/12 04:10:20;;;;;;;4.53;3.50;;;22.00;73.10;;;;;;10420023;28;20037;-54
2021/09/12 04:15:21;;;;;;;5.05;3.67;;;22.10;73.10;;;;;;10419951;28;20033;-54
2021/09/12 04:20:22;;;;;;;4.65;3.85;;;22.00;73.00;;;;;;10426705;28;20025;-55
2021/09/12 04:25:23;;;;;;;6.80;4.03;;;22.00;72.90;;;;;;10419296;28;20049;-53
2021/09/12 04:30:23;;;;;;;6.03;4.10;;;22.10;73.00;;;;;;10418880;28;20102;-55
2021/09/12 04:35:24;;;;;;;6.32;3.80;;;22.00;72.90;;;;;;10418981;28;20438;-54
2021/09/12 04:40:25;;;;;;;8.77;4.38;;;22.00;72.80;;;;;;10419108;28;20022;-54
2021/09/12 04:45:25;;;;;;;4.80;3.63;;;22.00;72.80;;;;;;10417903;28;20167;-54
2021/09/12 04:50:26;;;;;;;6.80;3.90;;;22.00;72.80;;;;;;10417182;28;20036;-54
2021/09/12 04:55:27;;;;;;;6.07;4.07;;;22.00;72.70;;;;;;10417294;28;20029;-55
2021/09/12 05:00:27;;;;;;;6.50;4.45;;;21.90;72.70;;;;;;10416813;28;20119;-55
2021/09/12 05:05:28;;;;;;;4.78;3.88;;;21.90;72.70;;;;;;10399867;28;20445;-54
2021/09/12 05:10:29;;;;;;;9.05;3.97;;;21.90;72.60;;;;;;10413774;28;20025;-52
2021/09/12 05:15:29;;;;;;;4.82;3.80;;;21.90;72.60;;;;;;10413608;28;20061;-55
2021/09/12 05:20:30;;;;;;;5.47;3.97;;;22.00;72.60;;;;;;10411295;28;20061;-59
2021/09/12 05:25:32;;;;;;;5.03;3.70;;;22.00;72.60;;;;;;10416782;28;20486;-44
2021/09/12 05:30:33;;;;;;;6.97;4.28;;;22.00;73.20;;;;;;10429288;28;20021;-43
2021/09/12 05:35:34;;;;;;;8.57;3.90;;;22.00;73.30;;;;;;10416443;28;20041;-43
2021/09/12 05:40:35;;;;;;;9.38;4.20;;;22.00;73.40;;;;;;10416182;28;20050;-45
2021/09/12 05:45:35;;;;;;;8.48;3.85;;;22.10;73.30;;;;;;10415276;28;20049;-44
2021/09/12 05:50:36;;;;;;;7.28;4.28;;;22.10;73.60;;;;;;10415983;28;20064;-46
2021/09/12 05:55:37;;;;;;;12.13;3.85;;;22.10;73.80;;;;;;10415463;28;20104;-44
2021/09/12 06:00:38;;;;;;;6.72;3.97;;;22.10;74.00;;;;;;10410610;28;20366;-42
2021/09/12 06:05:39;;;;;;;7.32;4.15;;;22.10;73.80;;;;;;10415213;28;20048;-43
2021/09/12 06:10:39;;;;;;;7.75;4.30;;;22.10;73.80;;;;;;10415050;28;20624;-45
2021/09/12 06:15:40;;;;;;;8.73;3.58;;;22.00;73.60;;;;;;10415115;28;20057;-42
2021/09/12 06:20:41;;;;;;;8.50;4.47;;;22.00;73.30;;;;;;10422455;28;20623;-48
2021/09/12 06:25:41;;;;;;;7.03;3.40;;;22.00;73.30;;;;;;10413226;28;20509;-43
2021/09/12 06:30:43;;;;;;;9.38;4.18;;;22.00;73.20;;;;;;10413695;28;20059;-45
2021/09/12 06:35:43;;;;;;;6.75;3.85;;;22.00;73.10;;;;;;10412927;28;20482;-44
2021/09/12 06:40:44;;;;;;;5.50;3.85;;;22.00;72.80;;;;;;10412371;28;20098;-44
2021/09/12 06:45:46;;;;;;;4.68;3.67;;;21.90;72.90;;;;;;10412316;28;20626;-43
2021/09/12 06:50:47;;;;;;;7.75;4.07;;;22.00;73.00;;;;;;10412844;28;20044;-44
2021/09/12 06:55:48;;;;;;;8.43;4.03;;;22.00;73.10;;;;;;10412249;28;20128;-47
2021/09/12 07:00:48;;;;;;;7.93;4.20;;;21.90;73.20;;;;;;10412560;28;20104;-48
2021/09/12 07:05:49;;;;;;;6.15;4.18;;;21.90;73.00;;;;;;10414061;28;20109;-45
2021/09/12 07:10:49;;;;;;;8.43;3.92;;;21.90;72.90;;;;;;10420059;28;20056;-44
2021/09/12 07:15:50;;;;;;;5.55;3.65;;;21.90;73.60;;;;;;10421099;28;20442;-44
2021/09/12 07:20:51;;;;;;;7.60;3.78;;;21.90;73.20;;;;;;10439174;28;20099;-43
2021/09/12 07:25:52;;;;;;;6.93;4.28;;;21.90;73.70;;;;;;10421691;28;20037;-42
2021/09/12 07:30:52;;;;;;;9.32;4.15;;;22.00;73.70;;;;;;10420020;28;20585;-42
2021/09/12 07:35:53;;;;;;;7.93;5.25;;;21.90;73.80;;;;;;10419388;28;20496;-43
2021/09/12 07:40:54;;;;;;;10.80;4.53;;;22.00;74.40;;;;;;10420779;28;20112;-43
2021/09/12 07:45:55;;;;;;;13.30;4.78;;;22.00;73.50;;;;;;10420600;28;20152;-42
2021/09/12 07:50:55;;;;;;;20.38;5.05;;;22.00;73.50;;;;;;10420646;28;20474;-46
2021/09/12 07:55:56;;;;;;;17.23;4.82;;;21.90;73.40;;;;;;10420169;28;20458;-49
2021/09/12 08:00:57;;;;;;;13.43;4.50;;;22.00;74.20;;;;;;10411745;28;20063;-48
2021/09/12 08:05:57;;;;;;;13.32;4.63;;;22.10;75.00;;;;;;10418154;28;20075;-47
2021/09/12 08:10:58;;;;;;;15.75;5.07;;;22.10;74.70;;;;;;10419023;28;20029;-44
2021/09/12 08:15:59;;;;;;;11.75;4.45;;;22.00;75.10;;;;;;10416641;28;20060;-49
2021/09/12 08:21:00;;;;;;;12.85;4.20;;;22.10;75.40;;;;;;10421209;28;20033;-43
2021/09/12 08:26:01;;;;;;;11.52;4.13;;;22.10;74.20;;;;;;10418250;28;20492;-42
2021/09/12 08:31:02;;;;;;;11.98;4.88;;;22.40;74.40;;;;;;10417268;28;20108;-42
2021/09/12 08:36:03;;;;;;;10.80;4.53;;;22.30;74.50;;;;;;10417356;28;20068;-45
2021/09/12 08:41:04;;;;;;;15.55;4.80;;;22.30;74.70;;;;;;10417913;28;20382;-45
2021/09/12 08:46:06;;;;;;;10.40;4.20;;;22.20;74.60;;;;;;10420118;28;20059;-49
2021/09/12 08:51:07;;;;;;;12.07;4.45;;;22.20;74.60;;;;;;10418032;28;20505;-43
2021/09/12 08:56:08;;;;;;;23.15;6.35;;;22.30;74.80;;;;;;10418062;28;20108;-46
2021/09/12 09:01:08;;;;;;;10.38;4.13;;;22.30;74.60;;;;;;10417600;28;20124;-45
2021/09/12 09:06:15;;;;;;;11.57;4.70;;;22.30;74.60;;;;;;10416682;28;20561;-43
2021/09/12 09:11:34;;;;;;;9.45;4.45;;;22.20;74.50;;;;;;10413333;28;20048;-44
2021/09/12 09:16:34;;;;;;;10.67;4.73;;;22.20;74.40;;;;;;10416243;28;20029;-45
2021/09/12 09:21:47;;;;;;;10.68;4.32;;;22.10;74.40;;;;;;10429740;28;20311;-44
2021/09/12 09:27:04;;;;;;;8.68;4.55;;;22.10;74.30;;;;;;10416522;28;20065;-44
2021/09/12 09:32:05;;;;;;;9.68;4.82;;;22.10;74.30;;;;;;10431002;28;20577;-45
2021/09/12 09:37:16;;;;;;;11.25;4.88;;;22.10;74.50;;;;;;10416012;28;20494;-45
2021/09/12 09:42:41;;;;;;;11.38;4.80;;;22.20;74.50;;;;;;10414190;28;20054;-47
2021/09/12 09:47:51;;;;;;;10.75;4.35;;;22.20;74.40;;;;;;10413135;28;20079;-46
2021/09/12 09:52:56;;;;;;;17.27;5.47;;;22.20;74.40;;;;;;10413787;28;20052;-46
2021/09/12 09:57:57;;;;;;;16.15;5.22;;;22.20;74.20;;;;;;10413224;28;20033;-48
2021/09/12 10:02:58;;;;;;;16.58;5.47;;;22.20;74.20;;;;;;10412920;28;20068;-44
2021/09/12 10:07:59;;;;;;;16.50;5.65;;;22.20;74.70;;;;;;10414327;28;20029;-46
2021/09/12 10:13:03;;;;;;;21.00;6.30;;;22.20;74.70;;;;;;10414923;28;20029;-46
2021/09/12 10:18:06;;;;;;;16.42;5.30;;;22.30;74.80;;;;;;10414585;28;20052;-47
2021/09/12 10:23:12;;;;;;;16.23;4.70;;;22.30;75.10;;;;;;10426784;28;20025;-42
2021/09/12 10:28:13;;;;;;;15.35;5.40;;;22.40;75.30;;;;;;10405184;28;21374;-44
2021/09/12 10:33:20;;;;;;;16.20;6.85;;;22.40;75.20;;;;;;10410800;28;20025;-48
2021/09/12 10:38:31;;;;;;;19.15;6.30;;;22.30;75.00;;;;;;10411635;28;20044;-44
2021/09/12 10:43:40;;;;;;;15.55;6.28;;;22.30;75.00;;;;;;10409401;28;20060;-44
2021/09/12 10:48:51;;;;;;;15.40;6.00;;;22.20;75.00;;;;;;10413199;28;20393;-43
2021/09/12 10:53:55;;;;;;;12.00;5.90;;;22.20;75.20;;;;;;10413158;28;20042;-47
2021/09/12 10:59:01;;;;;;;13.73;5.70;;;22.20;75.10;;;;;;10412105;28;20550;-47
2021/09/12 11:04:03;;;;;;;11.68;4.80;;;22.20;74.80;;;;;;10412155;28;20057;-49
2021/09/12 11:09:22;;;;;;;11.70;4.93;;;22.20;74.50;;;;;;10411762;28;20057;-49
2021/09/12 11:14:24;;;;;;;8.80;5.10;;;22.10;74.50;;;;;;10413828;28;20025;-49
2021/09/12 11:19:25;;;;;;;12.00;5.28;;;22.10;74.60;;;;;;10424047;28;20021;-48
2021/09/12 11:24:27;;;;;;;10.55;5.72;;;22.20;74.60;;;;;;10413539;28;20108;-46
2021/09/12 11:29:31;;;;;;;9.55;5.45;;;22.10;74.40;;;;;;10413434;28;20038;-48
2021/09/12 11:34:34;;;;;;;8.98;5.45;;;22.10;74.40;;;;;;10413720;28;20509;-49
2021/09/12 11:39:46;;;;;;;8.23;5.45;;;22.10;74.30;;;;;;10413443;28;20037;-46
2021/09/12 11:44:56;;;;;;;9.95;5.43;;;22.20;74.30;;;;;;10413265;28;20053;-44
2021/09/12 11:50:12;;;;;;;10.00;5.63;;;22.10;74.30;;;;;;10412950;28;20021;-47
2021/09/12 11:55:23;;;;;;;8.07;5.18;;;22.10;74.30;;;;;;10414944;28;20029;-46
2021/09/12 12:00:23;;;;;;;8.32;5.63;;;22.10;74.30;;;;;;10419486;28;20056;-48
2021/09/12 12:05:25;;;;;;;6.88;5.15;;;22.10;74.40;;;;;;10418989;28;20032;-44
2021/09/12 12:10:35;;;;;;;8.45;5.60;;;22.10;74.50;;;;;;10420030;28;20037;-47
2021/09/12 12:15:43;;;;;;;11.65;6.55;;;22.10;74.60;;;;;;10420130;28;20381;-46
2021/09/12 12:20:44;;;;;;;9.35;6.10;;;22.10;74.60;;;;;;10432526;28;20478;-44
2021/09/12 12:25:47;;;;;;;7.30;4.80;;;22.10;74.40;;;;;;10419300;28;20124;-44
2021/09/12 12:31:12;;;;;;;8.13;5.15;;;22.10;74.40;;;;;;10419592;28;20551;-43
2021/09/12 12:36:21;;;;;;;8.63;5.30;;;22.10;74.50;;;;;;10434556;28;20036;-44
2021/09/12 12:41:24;;;;;;;8.20;5.88;;;22.10;74.60;;;;;;10419206;28;20033;-45
2021/09/12 12:46:43;;;;;;;8.52;5.45;;;22.20;74.50;;;;;;10418496;28;20502;-43
2021/09/12 12:52:07;;;;;;;8.48;6.50;;;22.20;74.40;;;;;;10418923;28;20029;-46
2021/09/12 12:57:11;;;;;;;9.68;5.43;;;22.20;74.40;;;;;;10418274;28;20040;-43
2021/09/12 13:02:12;;;;;;;7.97;5.78;;;22.20;74.50;;;;;;10418360;28;20036;-43
2021/09/12 13:07:13;;;;;;;9.32;5.57;;;22.20;74.40;;;;;;10416002;28;20034;-44
2021/09/12 13:12:14;;;;;;;12.45;5.95;;;22.20;74.40;;;;;;10415706;28;20026;-45
2021/09/12 13:17:15;;;;;;;11.07;5.78;;;22.20;74.60;;;;;;10416759;28;20063;-46
2021/09/12 13:22:15;;;;;;;13.25;6.70;;;22.20;74.80;;;;;;10418006;28;20049;-45
2021/09/12 13:27:16;;;;;;;13.10;6.53;;;22.20;74.80;;;;;;10415926;28;20065;-47
2021/09/12 13:32:17;;;;;;;19.88;7.30;;;22.20;74.80;;;;;;10416838;28;20032;-48
2021/09/12 13:37:17;;;;;;;28.70;8.63;;;22.20;74.90;;;;;;10416316;28;20033;-46
2021/09/12 13:42:18;;;;;;;30.02;8.88;;;22.20;75.20;;;;;;10410926;28;20072;-44
2021/09/12 13:47:19;;;;;;;26.30;8.13;;;22.20;75.20;;;;;;10415034;28;20092;-45
2021/09/12 13:52:20;;;;;;;22.67;8.43;;;22.20;75.40;;;;;;10415367;28;20025;-44
2021/09/12 13:57:20;;;;;;;40.22;10.13;;;22.30;75.30;;;;;;10415040;28;20044;-44
2021/09/12 14:02:21;;;;;;;23.08;9.13;;;22.30;75.40;;;;;;10414802;28;20436;-44
2021/09/12 14:07:28;;;;;;;18.13;7.43;;;22.30;75.20;;;;;;10414852;28;20116;-45
2021/09/12 14:12:28;;;;;;;24.13;9.10;;;22.20;75.30;;;;;;10415613;28;20108;-48
2021/09/12 14:17:29;;;;;;;16.50;8.35;;;22.20;75.10;;;;;;10414214;28;20037;-49
2021/09/12 14:22:30;;;;;;;16.48;7.95;;;22.30;75.10;;;;;;10416880;28;20041;-47
2021/09/12 14:27:30;;;;;;;18.02;8.38;;;22.30;75.00;;;;;;10411727;28;20029;-48
2021/09/12 14:32:31;;;;;;;16.05;8.30;;;22.20;74.90;;;;;;10414574;28;20025;-44
2021/09/12 14:37:32;;;;;;;16.23;8.20;;;22.20;74.80;;;;;;10414420;28;20037;-49
2021/09/12 14:42:32;;;;;;;13.15;8.48;;;22.20;74.90;;;;;;10412899;28;20144;-44
2021/09/12 14:47:40;;;;;;;11.98;8.10;;;22.30;74.70;;;;;;10414190;28;20513;-44
2021/09/12 14:52:41;;;;;;;13.80;8.82;;;22.20;74.70;;;;;;10414143;28;20473;-46
2021/09/12 14:57:42;;;;;;;10.80;8.00;;;22.20;74.60;;;;;;10413175;28;20497;-48
2021/09/12 15:02:45;;;;;;;13.10;8.23;;;22.20;74.60;;;;;;10414064;28;20037;-48
2021/09/12 15:07:46;;;;;;;11.55;7.15;;;22.20;74.60;;;;;;10414185;28;20032;-50
2021/09/12 15:12:48;;;;;;;14.70;8.20;;;22.20;74.70;;;;;;10413729;28;20105;-47
2021/09/12 15:17:48;;;;;;;17.98;8.48;;;22.20;74.60;;;;;;10412279;28;20037;-47
2021/09/12 15:22:49;;;;;;;15.18;7.65;;;22.20;74.60;;;;;;10422647;28;20116;-45
2021/09/12 15:27:52;;;;;;;27.40;10.45;;;22.20;74.70;;;;;;10413511;28;20061;-45
2021/09/12 15:32:52;;;;;;;43.60;9.70;;;22.20;75.00;;;;;;10415759;28;20021;-47
2021/09/12 15:37:53;;;;;;;31.27;9.35;;;22.20;75.20;;;;;;10420443;28;20033;-45
2021/09/12 15:42:54;;;;;;;31.30;10.88;;;22.20;75.30;;;;;;10416820;28;20068;-45
2021/09/12 15:47:54;;;;;;;27.70;10.10;;;22.20;76.30;;;;;;10419737;28;20033;-47
2021/09/12 15:52:55;;;;;;;14.20;8.70;;;22.30;75.40;;;;;;10410231;28;20057;-45
2021/09/12 15:57:56;;;;;;;51.15;30.55;;;22.20;75.00;;;;;;10412534;28;20395;-50
2021/09/12 16:02:56;;;;;;;44.85;30.38;;;22.20;76.50;;;;;;10403538;28;20068;-50
2021/09/12 16:07:57;;;;;;;51.67;34.95;;;22.30;76.10;;;;;;10410798;28;20431;-44
2021/09/12 16:12:58;;;;;;;47.58;34.60;;;22.30;76.10;;;;;;10414371;28;20029;-44
2021/09/12 16:17:59;;;;;;;46.20;31.67;;;22.40;76.50;;;;;;10417042;28;20393;-47
2021/09/12 16:22:59;;;;;;;36.33;24.13;;;22.30;76.10;;;;;;10431908;28;20064;-44
2021/09/12 16:28:00;;;;;;;30.80;26.15;;;22.40;76.30;;;;;;10415467;28;20065;-49
2021/09/12 16:33:01;;;;;;;29.23;21.25;;;22.40;76.30;;;;;;10418652;28;20037;-45
2021/09/12 16:38:02;;;;;;;27.23;16.67;;;22.40;76.20;;;;;;10418622;28;20095;-50
2021/09/12 16:43:03;;;;;;;19.65;14.15;;;22.50;76.00;;;;;;10417551;28;20132;-51
2021/09/12 16:48:03;;;;;;;12.02;8.77;;;22.50;75.40;;;;;;10412920;28;20030;-49
2021/09/12 16:53:04;;;;;;;13.55;10.77;;;22.40;73.40;;;;;;10409745;28;20040;-57
2021/09/12 16:58:05;;;;;;;18.73;9.85;;;22.40;77.90;;;;;;10413956;28;20108;-57
2021/09/12 17:03:06;;;;;;;14.80;8.55;;;22.80;77.20;;;;;;10416812;28;20113;-58
2021/09/12 17:08:07;;;;;;;16.35;8.50;;;22.60;75.40;;;;;;10416274;28;20038;-57
2021/09/12 17:13:07;;;;;;;12.57;8.35;;;22.50;75.90;;;;;;10409540;28;20038;-56
2021/09/12 17:18:08;;;;;;;13.07;6.60;;;22.40;75.60;;;;;;10417157;28;20072;-56
2021/09/12 17:23:09;;;;;;;11.30;6.97;;;22.40;75.40;;;;;;10429263;28;20104;-56
2021/09/12 17:28:09;;;;;;;10.38;6.00;;;22.30;75.10;;;;;;10415487;28;20037;-56
2021/09/12 17:33:11;;;;;;;10.35;6.07;;;22.30;74.80;;;;;;10415423;28;20039;-56
2021/09/12 17:38:12;;;;;;;9.18;5.72;;;22.30;74.60;;;;;;10415118;28;20040;-57
2021/09/12 17:43:13;;;;;;;8.23;5.13;;;22.30;74.40;;;;;;10415111;28;20419;-51
2021/09/12 17:48:17;;;;;;;10.00;4.75;;;22.20;74.20;;;;;;10415603;28;20041;-56
2021/09/12 17:53:17;;;;;;;12.93;5.30;;;22.20;73.40;;;;;;10412769;28;20026;-50
2021/09/12 17:58:18;;;;;;;8.98;4.45;;;22.30;73.30;;;;;;10413639;28;20080;-51
2021/09/12 18:03:20;;;;;;;13.63;5.13;;;22.30;72.80;;;;;;10411834;28;20079;-52
2021/09/12 18:08:21;;;;;;;8.70;4.72;;;22.30;72.80;;;;;;10411278;28;20029;-50
2021/09/12 18:13:21;;;;;;;10.98;4.35;;;22.30;72.90;;;;;;10412448;28;20082;-53
2021/09/12 18:18:23;;;;;;;11.25;4.50;;;22.30;73.30;;;;;;10413841;28;20108;-49
2021/09/12 18:23:23;;;;;;;7.35;3.63;;;22.30;72.90;;;;;;10413482;28;20052;-46
2021/09/12 18:28:24;;;;;;;10.75;4.32;;;22.20;72.40;;;;;;10410391;28;20113;-46
2021/09/12 18:33:25;;;;;;;10.32;3.97;;;22.20;73.30;;;;;;10427501;28;20120;-50
2021/09/12 18:38:26;;;;;;;8.55;3.42;;;22.20;72.90;;;;;;10412184;28;20030;-49
2021/09/12 18:43:29;;;;;;;6.82;3.28;;;22.20;72.70;;;;;;10411917;28;20123;-47
2021/09/12 18:48:35;;;;;;;3.83;2.72;;;22.10;72.60;;;;;;10410832;28;20040;-50
2021/09/12 18:53:36;;;;;;;4.88;2.75;;;22.10;72.30;;;;;;10411932;28;20049;-51
2021/09/12 18:58:37;;;;;;;13.43;3.65;;;22.10;72.00;;;;;;10414015;28;20156;-51
2021/09/12 19:03:37;;;;;;;7.40;2.78;;;22.10;72.10;;;;;;10415592;28;20481;-51
2021/09/12 19:08:38;;;;;;;6.03;3.35;;;22.20;72.20;;;;;;10424916;28;20712;-55
2021/09/12 19:13:39;;;;;;;11.38;2.85;;;22.20;72.50;;;;;;10422094;28;20029;-54
2021/09/12 19:18:40;;;;;;;6.28;2.55;;;22.10;72.90;;;;;;10425932;28;20043;-55
2021/09/12 19:23:40;;;;;;;6.15;3.22;;;22.20;72.50;;;;;;10425454;28;20065;-55
2021/09/12 19:28:42;;;;;;;6.45;2.65;;;22.20;72.40;;;;;;10420813;28;20051;-56
2021/09/12 19:33:43;;;;;;;10.55;2.85;;;22.10;72.40;;;;;;10420036;28;20048;-56
2021/09/12 19:38:44;;;;;;;7.13;2.88;;;22.10;72.50;;;;;;10418673;28;20516;-56
2021/09/12 19:43:44;;;;;;;4.53;2.88;;;22.10;72.40;;;;;;10418145;28;20129;-56
2021/09/12 19:48:45;;;;;;;7.40;2.78;;;22.10;72.50;;;;;;10418018;28;20033;-56
2021/09/12 19:53:46;;;;;;;6.97;2.78;;;22.00;72.60;;;;;;10420138;28;20061;-56
2021/09/12 19:58:46;;;;;;;6.35;2.50;;;22.00;72.50;;;;;;10420444;28;20044;-56
2021/09/12 20:03:47;;;;;;;4.20;2.33;;;22.00;72.50;;;;;;10420591;28;20033;-56
2021/09/12 20:08:48;;;;;;;5.97;2.55;;;22.10;72.60;;;;;;10420188;28;20167;-56
2021/09/12 20:13:49;;;;;;;3.33;2.42;;;22.00;72.50;;;;;;10419750;28;20536;-56
2021/09/12 20:18:49;;;;;;;5.03;2.83;;;22.00;72.60;;;;;;10423899;28;20178;-56
2021/09/12 20:23:50;;;;;;;3.65;2.00;;;22.00;72.60;;;;;;10426701;28;20065;-56
2021/09/12 20:28:51;;;;;;;4.18;2.50;;;22.00;72.60;;;;;;10417949;28;20061;-56
2021/09/12 20:33:52;;;;;;;3.85;2.20;;;22.00;72.60;;;;;;10419330;28;20100;-56
2021/09/12 20:38:52;;;;;;;5.35;2.45;;;22.00;72.50;;;;;;10419013;28;20036;-56
2021/09/12 20:43:53;;;;;;;4.43;2.40;;;22.00;72.50;;;;;;10418997;28;20128;-55
2021/09/12 20:48:54;;;;;;;2.67;2.15;;;22.00;72.50;;;;;;10418378;28;20033;-56
2021/09/12 20:53:54;;;;;;;7.60;2.60;;;22.00;72.60;;;;;;10417939;28;20056;-55
2021/09/12 20:58:55;;;;;;;3.95;2.30;;;22.00;72.50;;;;;;10417236;28;20480;-55
2021/09/12 21:03:55;;;;;;;4.60;2.35;;;22.00;72.50;;;;;;10418057;28;20381;-55
2021/09/12 21:08:56;;;;;;;3.22;2.33;;;21.90;72.40;;;;;;10416644;28;20187;-55
2021/09/12 21:13:58;;;;;;;2.90;2.03;;;22.00;72.50;;;;;;10416169;28;20038;-55
2021/09/12 21:18:59;;;;;;;4.15;2.33;;;21.90;72.30;;;;;;10423408;28;20025;-55
2021/09/12 21:24:00;;;;;;;5.18;2.33;;;21.90;72.30;;;;;;10422637;28;20443;-56
2021/09/12 21:29:00;;;;;;;4.00;2.45;;;21.90;72.30;;;;;;10399041;28;20053;-56
2021/09/12 21:34:02;;;;;;;4.70;2.28;;;21.90;72.10;;;;;;10416724;28;20036;-55
2021/09/12 21:39:03;;;;;;;6.72;2.33;;;21.90;72.10;;;;;;10428813;28;20486;-56
2021/09/12 21:44:04;;;;;;;2.97;2.00;;;21.90;72.00;;;;;;10416215;28;20045;-56
2021/09/12 21:49:05;;;;;;;3.72;2.15;;;21.90;72.10;;;;;;10416277;28;20497;-56
2021/09/12 21:54:05;;;;;;;3.60;2.38;;;21.90;72.00;;;;;;10415300;28;20037;-56
2021/09/12 21:59:06;;;;;;;3.35;1.95;;;21.90;72.10;;;;;;10414440;28;20137;-55
2021/09/12 22:04:07;;;;;;;2.97;2.10;;;21.90;72.00;;;;;;10415761;28;20515;-56
2021/09/12 22:09:08;;;;;;;1.80;1.63;;;21.90;71.80;;;;;;10414170;28;20044;-55
2021/09/12 22:14:09;;;;;;;3.20;1.92;;;21.90;71.80;;;;;;10414462;28;20466;-56
2021/09/12 22:19:09;;;;;;;3.95;1.85;;;21.90;71.60;;;;;;10421268;28;20029;-57
2021/09/12 22:24:10;;;;;;;3.03;2.22;;;21.90;71.60;;;;;;10414778;28;20025;-56
2021/09/12 22:29:11;;;;;;;2.72;2.30;;;21.90;71.50;;;;;;10414691;28;20030;-56
2021/09/12 22:34:11;;;;;;;3.67;2.47;;;21.80;71.50;;;;;;10414807;28;20036;-56
2021/09/12 22:39:12;;;;;;;3.03;1.88;;;21.80;71.40;;;;;;10412839;28;20033;-56
2021/09/12 22:44:13;;;;;;;2.80;1.85;;;21.80;71.30;;;;;;10413080;28;20436;-56
2021/09/12 22:49:14;;;;;;;4.95;2.00;;;21.80;71.10;;;;;;10412822;28;20083;-56
2021/09/12 22:54:14;;;;;;;3.00;2.28;;;21.80;71.10;;;;;;10414098;28;20121;-56
2021/09/12 22:59:16;;;;;;;2.67;1.70;;;21.80;71.20;;;;;;10414131;28;20033;-56
2021/09/12 23:04:16;;;;;;;3.85;1.88;;;21.80;71.00;;;;;;10413495;28;20493;-56
2021/09/12 23:09:19;;;;;;;2.65;1.77;;;21.80;71.00;;;;;;10421309;28;20044;-56
2021/09/12 23:14:20;;;;;;;3.42;1.90;;;21.80;70.90;;;;;;10418492;28;20032;-55
2021/09/12 23:19:20;;;;;;;2.90;2.13;;;21.70;70.70;;;;;;10414687;28;20065;-56
2021/09/12 23:24:22;;;;;;;2.10;1.90;;;21.80;70.70;;;;;;10412136;28;20521;-56
2021/09/12 23:29:22;;;;;;;2.75;1.80;;;21.70;70.60;;;;;;10413374;28;20398;-56
2021/09/12 23:34:23;;;;;;;2.83;2.33;;;21.80;70.60;;;;;;10401461;28;20105;-55
2021/09/12 23:39:24;;;;;;;4.28;1.85;;;21.70;70.50;;;;;;10425355;28;20037;-55
2021/09/12 23:44:25;;;;;;;1.88;1.55;;;21.70;70.40;;;;;;10413305;28;20088;-56
2021/09/12 23:49:25;;;;;;;3.33;2.10;;;21.70;70.40;;;;;;10411916;28;20476;-55
2021/09/12 23:54:29;;;;;;;2.33;1.75;;;21.70;70.30;;;;;;10419829;28;20026;-55
2021/09/12 23:59:29;;;;;;;3.03;2.10;;;21.70;70.20;;;;;;10419041;28;20033;-56
